Time;durP1;ratioP1;P1;durP2;ratioP2;P2;SDS_P1;SDS_P2;PMS_P1;PMS_P2;Temp;Humidity;BMP_temperature;BMP_pressure;BME280_temperature;BME280_humidity;BME280_pressure;Samples;Min_cycle;Max_cycle;Signal;HPM_P1;HPM_P2
2022/03/20 00:03:07;;;;;;;16.77;8.88;;;;;;;3.86;36.39;100993.09;5010869;28;20057;-69
2022/03/20 00:05:52;;;;;;;14.73;8.52;;;;;;;3.65;35.67;100988.03;5011315;28;20046;-69
2022/03/20 00:08:37;;;;;;;14.45;8.38;;;;;;;3.85;37.30;100994.00;5011178;28;20048;-67
2022/03/20 00:11:22;;;;;;;16.30;8.23;;;;;;;3.64;35.93;100995.81;5010532;28;20038;-69
2022/03/20 00:14:07;;;;;;;15.65;7.75;;;;;;;3.70;36.76;100994.03;5023309;28;20050;-69
2022/03/20 00:16:52;;;;;;;14.23;8.02;;;;;;;3.45;37.88;101001.91;5010364;28;20046;-69
2022/03/20 00:19:39;;;;;;;17.63;10.07;;;;;;;3.18;37.49;100995.94;5037354;28;20072;-69
2022/03/20 00:22:26;;;;;;;16.88;8.60;;;;;;;2.79;39.75;101005.50;5023828;28;20096;-69
2022/03/20 00:25:11;;;;;;;20.52;10.90;;;;;;;2.87;38.28;101005.50;5010180;28;20045;-69
2022/03/20 00:27:57;;;;;;;16.10;9.30;;;;;;;2.79;38.18;101008.09;5038070;28;20454;-69
2022/03/20 00:30:43;;;;;;;17.35;8.88;;;;;;;3.05;38.72;101008.03;5010972;28;20370;-69
2022/03/20 00:33:28;;;;;;;19.08;9.20;;;;;;;3.14;38.48;100996.81;5038036;28;20050;-70
2022/03/20 00:36:16;;;;;;;18.60;8.95;;;;;;;2.84;37.86;101008.91;5015895;28;20080;-69
2022/03/20 00:39:02;;;;;;;14.68;8.02;;;;;;;3.19;38.59;101012.34;5030646;28;20052;-69
2022/03/20 00:41:48;;;;;;;16.10;8.52;;;;;;;2.90;37.54;101013.25;5015892;28;20046;-70
2022/03/20 00:44:33;;;;;;;14.73;8.13;;;;;;;2.69;39.09;101007.22;5030942;28;20080;-69
2022/03/20 00:47:18;;;;;;;12.32;7.43;;;;;;;2.62;38.54;101001.19;5030078;28;20060;-68
2022/03/20 00:50:05;;;;;;;16.33;8.77;;;;;;;2.62;37.66;101011.53;5016414;28;20050;-69
2022/03/20 00:52:50;;;;;;;14.00;7.97;;;;;;;2.52;38.46;101014.97;5030791;28;20148;-69
2022/03/20 00:55:36;;;;;;;14.82;8.00;;;;;;;2.51;38.56;101008.06;5032701;28;20042;-69
2022/03/20 00:58:22;;;;;;;14.95;8.63;;;;;;;2.52;39.07;101007.19;5020010;28;20111;-68
2022/03/20 01:01:10;;;;;;;13.02;7.63;;;;;;;2.66;38.27;101004.63;5034887;28;20045;-69
2022/03/20 01:03:55;;;;;;;15.00;7.75;;;;;;;2.56;39.03;100996.84;5033355;28;20053;-68
2022/03/20 01:06:40;;;;;;;12.65;7.20;;;;;;;2.61;38.67;100996.88;5032841;28;20057;-68
2022/03/20 01:09:26;;;;;;;15.40;6.55;;;;;;;2.37;37.21;100990.78;5034175;28;20049;-70
2022/03/20 01:12:12;;;;;;;13.80;7.00;;;;;;;2.42;38.36;100998.56;5032756;28;20045;-69
2022/03/20 01:14:57;;;;;;;15.48;7.57;;;;;;;2.25;37.69;100994.25;5019161;28;20045;-69
2022/03/20 01:17:42;;;;;;;13.80;7.00;;;;;;;2.39;36.78;101001.16;5032978;28;20118;-70
2022/03/20 01:20:27;;;;;;;13.00;7.32;;;;;;;2.28;37.45;101002.03;5032114;28;20473;-68
2022/03/20 01:23:13;;;;;;;11.50;6.80;;;;;;;2.25;37.13;101003.72;5031853;28;20049;-70
2022/03/20 01:25:58;;;;;;;13.07;6.45;;;;;;;2.37;38.13;101001.16;5032879;28;20046;-68
2022/03/20 01:28:43;;;;;;;13.65;6.60;;;;;;;2.33;36.92;100997.69;5032762;28;20041;-69
2022/03/20 01:31:28;;;;;;;14.82;7.53;;;;;;;2.16;37.96;100994.22;5032603;28;20115;-69
2022/03/20 01:34:13;;;;;;;12.77;6.55;;;;;;;1.95;37.40;100991.59;5033664;28;20457;-69
2022/03/20 01:36:58;;;;;;;13.25;6.65;;;;;;;2.03;37.73;100994.19;5032918;28;20049;-68
2022/03/20 01:39:45;;;;;;;15.90;7.78;;;;;;;1.87;37.03;101002.75;5033840;28;20045;-69
2022/03/20 01:42:29;;;;;;;14.15;7.05;;;;;;;1.86;37.21;100996.72;5032550;28;20041;-69
2022/03/20 01:45:20;;;;;;;13.88;7.13;;;;;;;1.86;36.78;100998.47;5033678;28;20478;-69
2022/03/20 01:48:06;;;;;;;11.85;6.90;;;;;;;1.87;36.53;100989.84;5033921;28;20045;-69
2022/03/20 01:50:53;;;;;;;14.27;7.35;;;;;;;1.88;36.85;100994.16;5033431;28;20048;-69
2022/03/20 01:53:38;;;;;;;13.75;6.65;;;;;;;1.93;37.02;100990.72;5032540;28;20075;-69
2022/03/20 01:56:24;;;;;;;12.95;7.18;;;;;;;1.89;36.18;100981.25;5032246;28;20052;-69
2022/03/20 01:59:08;;;;;;;17.38;7.78;;;;;;;1.87;36.36;100979.50;5018561;28;20046;-70
2022/03/20 02:01:55;;;;;;;13.02;7.05;;;;;;;1.75;37.88;100973.41;5032395;28;20139;-69
2022/03/20 02:04:42;;;;;;;11.23;6.45;;;;;;;1.62;36.71;100966.50;5033216;28;20396;-69
2022/03/20 02:07:29;;;;;;;14.65;6.55;;;;;;;1.66;37.95;100969.09;5032188;28;20050;-69
2022/03/20 02:10:15;;;;;;;13.52;6.95;;;;;;;2.01;37.09;100976.97;5034003;28;20045;-69
2022/03/20 02:13:00;;;;;;;10.90;6.53;;;;;;;1.74;37.44;100963.94;5034851;28;20353;-68
2022/03/20 02:15:48;;;;;;;12.05;6.78;;;;;;;1.89;36.50;100965.72;5034196;28;20045;-70
2022/03/20 02:18:36;;;;;;;14.95;6.53;;;;;;;1.85;36.47;100961.38;5032844;28;20132;-69
2022/03/20 02:21:39;;;;;;;13.45;6.63;;;;;;;1.84;36.42;100970.84;5042320;28;20056;-68
2022/03/20 02:24:42;;;;;;;11.05;6.43;;;;;;;1.73;36.81;100962.22;5043043;28;20113;-68
2022/03/20 02:27:27;;;;;;;17.05;7.07;;;;;;;1.81;36.10;100965.69;5039317;28;20045;-68
2022/03/20 02:30:15;;;;;;;16.27;6.18;;;;;;;1.87;36.62;100969.16;5031958;28;20087;-68
2022/03/20 02:33:00;;;;;;;11.20;6.32;;;;;;;1.92;36.11;100957.97;5031717;28;20050;-69
2022/03/20 02:35:47;;;;;;;12.25;6.43;;;;;;;1.88;36.24;100969.16;4990623;28;20080;-69
2022/03/20 02:38:34;;;;;;;13.80;6.78;;;;;;;1.86;36.40;100968.28;5031388;28;20045;-69
2022/03/20 02:41:20;;;;;;;12.25;6.47;;;;;;;1.83;36.89;100968.28;5032725;28;20508;-68
2022/03/20 02:44:13;;;;;;;10.65;6.60;;;;;;;1.84;35.78;100970.84;5032315;28;20410;-69
2022/03/20 02:47:02;;;;;;;13.45;5.85;;;;;;;1.87;37.45;100969.16;5031659;28;20045;-70
2022/03/20 02:49:50;;;;;;;11.75;6.28;;;;;;;1.74;36.72;100970.84;5031780;28;20049;-69
2022/03/20 02:52:46;;;;;;;13.07;6.28;;;;;;;1.48;36.14;100967.31;5030352;28;20049;-69
2022/03/20 02:55:36;;;;;;;12.88;6.25;;;;;;;1.57;35.36;100963.88;5032880;28;20045;-70
2022/03/20 02:58:24;;;;;;;10.80;5.75;;;;;;;1.58;35.65;100963.88;5034942;28;20045;-69
2022/03/20 03:01:09;;;;;;;13.10;6.80;;;;;;;1.39;35.69;100970.69;5046120;28;20049;-69
2022/03/20 03:03:56;;;;;;;13.13;5.85;;;;;;;1.27;36.82;100970.66;5033013;28;20091;-69
2022/03/20 03:06:42;;;;;;;11.57;6.53;;;;;;;1.53;36.19;100973.34;5058404;28;20037;-69
2022/03/20 03:12:33;;;;;;;11.38;5.65;;;;;;;1.45;35.93;100959.53;5031575;28;20057;-70
2022/03/20 03:15:19;;;;;;;10.60;5.57;;;;;;;1.62;36.02;100958.75;5059482;28;20075;-68
2022/03/20 03:18:05;;;;;;;10.38;5.57;;;;;;;1.45;36.00;100959.53;5058559;28;20045;-68
2022/03/20 03:20:51;;;;;;;10.60;6.40;;;;;;;1.25;36.02;100968.06;5060368;28;20041;-69
2022/03/20 03:23:36;;;;;;;12.10;5.78;;;;;;;1.32;35.84;100966.38;5034126;28;20400;-71
2022/03/20 03:26:22;;;;;;;12.35;5.50;;;;;;;1.49;36.47;100963.84;5031888;28;20506;-69
2022/03/20 03:29:08;;;;;;;10.52;6.03;;;;;;;1.25;35.80;100969.75;5059918;28;20580;-69
2022/03/20 03:31:55;;;;;;;10.93;5.53;;;;;;;1.11;36.27;100965.38;5062020;28;20056;-69
2022/03/20 03:37:54;;;;;;;10.15;5.43;;;;;;;1.23;36.38;100965.47;5037004;28;20053;-70
2022/03/20 03:40:44;;;;;;;14.02;6.90;;;;;;;1.06;37.10;100962.75;5032566;28;20045;-68
2022/03/20 03:43:31;;;;;;;15.10;6.63;;;;;;;1.17;36.69;100968.00;5030773;28;20460;-69
2022/03/20 03:46:17;;;;;;;11.23;5.43;;;;;;;1.31;37.73;100973.25;5030860;28;20148;-69
2022/03/20 03:49:02;;;;;;;10.45;5.45;;;;;;;1.12;36.94;100968.84;5031553;28;20041;-68
2022/03/20 03:51:47;;;;;;;12.35;5.85;;;;;;;1.21;37.12;100977.50;5031532;28;20103;-68
2022/03/20 03:54:32;;;;;;;11.90;5.78;;;;;;;1.11;36.66;100980.88;5049217;28;20049;-69
2022/03/20 03:57:21;;;;;;;10.60;6.10;;;;;;;1.30;36.56;100983.56;5030331;28;20051;-69
2022/03/20 04:00:06;;;;;;;11.25;5.47;;;;;;;1.02;36.86;100985.97;5030473;28;20052;-69
2022/03/20 04:02:51;;;;;;;8.68;5.60;;;;;;;1.06;36.65;100978.25;5031249;28;20103;-70
2022/03/20 04:05:39;;;;;;;11.82;6.10;;;;;;;1.21;37.14;100989.53;5057425;28;20042;-69
2022/03/20 04:08:26;;;;;;;12.20;6.43;;;;;;;1.11;36.63;100988.63;5029786;28;20052;-70
2022/03/20 04:11:12;;;;;;;11.75;5.50;;;;;;;1.02;37.04;100984.28;5031405;28;20045;-69
2022/03/20 04:13:57;;;;;;;10.57;6.10;;;;;;;0.82;37.60;100991.88;5030602;28;20447;-68
2022/03/20 04:16:42;;;;;;;11.57;6.10;;;;;;;1.09;37.15;100982.59;5029731;28;20103;-69
2022/03/20 04:19:27;;;;;;;14.23;6.50;;;;;;;0.92;37.68;100990.22;5030599;28;20044;-68
2022/03/20 04:22:11;;;;;;;11.23;6.35;;;;;;;0.94;38.17;100979.06;5030345;28;20049;-69
2022/03/20 04:24:56;;;;;;;14.15;6.78;;;;;;;0.89;38.29;100990.19;5015970;28;20049;-69
2022/03/20 04:27:41;;;;;;;11.65;6.28;;;;;;;0.91;38.37;100978.16;5002406;28;20045;-68
2022/03/20 04:30:28;;;;;;;14.15;7.97;;;;;;;0.68;38.28;100994.34;5034289;28;20041;-69
2022/03/20 04:33:15;;;;;;;12.23;5.75;;;;;;;0.78;38.91;100991.00;5035020;28;20041;-69
2022/03/20 04:36:08;;;;;;;12.77;6.70;;;;;;;0.48;38.79;100993.34;5034099;28;20426;-69
2022/03/20 04:38:56;;;;;;;14.10;6.90;;;;;;;0.51;38.79;100995.06;5034951;28;20041;-69
2022/03/20 04:41:41;;;;;;;13.30;6.30;;;;;;;0.31;39.49;100990.59;5034809;28;20045;-68
2022/03/20 04:44:27;;;;;;;12.45;6.13;;;;;;;0.61;39.64;101001.16;5034510;28;20046;-69
2022/03/20 04:58:29;;;;;;;15.73;6.70;;;;;;;0.40;39.68;101000.13;5034600;28;20061;-69
2022/03/20 04:59:30;;;;;;;13.13;6.00;;;;;;;0.56;39.03;101006.28;5033667;28;20046;-69
2022/03/20 05:02:15;;;;;;;15.30;6.68;;;;;;;0.32;39.44;101023.28;5034801;28;20045;-69
2022/03/20 05:05:03;;;;;;;12.98;6.55;;;;;;;0.40;39.24;101017.31;5033296;28;20049;-69
2022/03/20 05:07:49;;;;;;;11.27;5.75;;;;;;;0.33;39.64;101026.69;5034641;28;20127;-68
2022/03/20 05:13:38;;;;;;;10.00;5.70;;;;;;;0.36;39.87;101040.50;5033676;28;20057;-68
2022/03/20 05:16:23;;;;;;;11.88;5.95;;;;;;;0.53;39.43;101036.34;5034021;28;20053;-69
2022/03/20 05:19:08;;;;;;;11.13;6.45;;;;;;;0.48;40.00;101044.94;5033643;28;20103;-69
2022/03/20 05:21:53;;;;;;;10.18;5.20;;;;;;;0.48;39.61;101042.34;5033199;28;20045;-69
2022/03/20 05:24:40;;;;;;;12.00;6.15;;;;;;;0.43;39.47;101036.28;5032778;28;20049;-69
2022/03/20 05:27:24;;;;;;;12.25;6.20;;;;;;;0.44;39.97;101043.16;5034101;28;20041;-69
2022/03/20 05:30:10;;;;;;;13.52;5.70;;;;;;;0.56;39.59;101039.84;5027041;28;20100;-69
2022/03/20 05:32:55;;;;;;;13.23;5.93;;;;;;;0.48;40.10;101055.25;5013494;28;20452;-69
2022/03/20 05:35:43;;;;;;;11.88;6.28;;;;;;;0.51;39.84;101062.13;5012930;28;20406;-70
2022/03/20 05:38:31;;;;;;;12.93;6.03;;;;;;;0.77;39.32;101061.50;5026842;28;20117;-68
2022/03/20 05:42:01;;;;;;;12.07;6.45;;;;;;;0.70;39.53;101062.31;5013077;28;20512;-69
2022/03/20 05:44:24;;;;;;;11.02;5.28;;;;;;;0.74;39.95;101058.91;5002186;28;20054;-68
2022/03/20 05:47:13;;;;;;;10.25;6.30;;;;;;;0.76;39.75;101067.53;5000194;28;20053;-68
2022/03/20 05:50:02;;;;;;;13.15;5.38;;;;;;;1.14;39.22;101066.13;4986072;28;20045;-68
2022/03/20 05:52:48;;;;;;;10.10;6.05;;;;;;;1.06;38.90;101073.78;5013205;28;20050;-69
2022/03/20 05:58:43;;;;;;;10.90;5.95;;;;;;;0.96;39.61;101077.19;5018473;28;20405;-69
2022/03/20 06:01:31;;;;;;;11.90;5.75;;;;;;;1.54;38.89;101082.72;5006672;28;20057;-68
2022/03/20 06:04:20;;;;;;;15.20;6.53;;;;;;;1.50;38.41;101084.44;5014395;28;20050;-68
2022/03/20 06:07:08;;;;;;;10.70;5.78;;;;;;;1.43;38.73;101087.84;5012663;28;20077;-69
2022/03/20 06:09:54;;;;;;;12.65;6.30;;;;;;;1.48;38.23;101101.66;5009351;28;20056;-68
2022/03/20 06:12:41;;;;;;;11.23;6.20;;;;;;;1.45;38.85;101099.91;5045701;28;20144;-68
2022/03/20 06:15:28;;;;;;;13.15;5.93;;;;;;;1.64;38.03;101100.03;5027734;28;20099;-69
2022/03/20 06:18:14;;;;;;;13.45;6.57;;;;;;;1.75;38.14;101114.75;5047769;28;20071;-69
2022/03/20 06:21:00;;;;;;;13.73;6.82;;;;;;;1.81;38.13;101114.78;5080004;28;20124;-68
2022/03/20 06:23:47;;;;;;;12.02;6.68;;;;;;;1.85;37.92;101116.50;5051970;28;20049;-69
2022/03/20 06:26:34;;;;;;;11.35;6.40;;;;;;;2.23;37.58;101120.13;5051450;28;20447;-69
2022/03/20 06:29:23;;;;;;;11.35;6.55;;;;;;;1.78;38.45;101122.50;5064840;28;20086;-71
2022/03/20 06:32:10;;;;;;;12.45;5.90;;;;;;;2.67;46.04;101130.59;5018220;28;20465;-53
2022/03/20 06:34:55;;;;;;;11.00;5.63;;;;;;;3.29;38.17;101135.84;5032767;28;20358;-61
2022/03/20 06:37:45;;;;;;;9.50;5.38;;;;;;;2.76;37.43;101128.03;5038442;28;20041;-61
2022/03/20 06:40:30;;;;;;;14.75;6.43;;;;;;;3.09;36.52;101143.59;5053012;28;20045;-63
2022/03/20 06:43:16;;;;;;;11.98;6.93;;;;;;;2.83;36.76;101141.84;5057295;28;20045;-64
2022/03/20 06:46:04;;;;;;;12.18;6.20;;;;;;;2.82;36.63;101134.97;5041508;28;20045;-62
2022/03/20 06:48:50;;;;;;;13.68;6.82;;;;;;;2.78;37.31;101135.78;5044933;28;20132;-59
2022/03/20 06:51:36;;;;;;;17.35;8.07;;;;;;;3.27;38.19;101142.75;5031565;28;20454;-62
2022/03/20 06:54:21;;;;;;;13.93;6.70;;;;;;;2.97;36.96;101136.69;5028266;28;20392;-59
2022/03/20 06:57:05;;;;;;;13.93;6.68;;;;;;;3.30;36.65;101145.34;5044185;28;20048;-60
2022/03/20 06:59:52;;;;;;;13.63;6.72;;;;;;;3.20;36.25;101149.66;5052695;28;20045;-63
2022/03/20 07:02:37;;;;;;;14.05;6.85;;;;;;;3.53;35.96;101157.41;5064622;28;20048;-61
2022/03/20 07:05:22;;;;;;;15.13;6.35;;;;;;;3.67;36.22;101156.56;5040027;28;20053;-60
2022/03/20 07:08:10;;;;;;;11.57;6.32;;;;;;;3.57;36.12;101163.47;5031752;28;20488;-69
2022/03/20 07:10:56;;;;;;;15.15;7.30;;;;;;;4.96;35.35;101156.88;5025688;28;20053;-58
2022/03/20 07:13:53;;;;;;;13.35;7.63;;;;;;;3.84;35.66;101158.22;5028786;28;20532;-57
2022/03/20 07:16:39;;;;;;;12.43;6.60;;;;;;;4.02;35.63;101159.91;5027116;28;20479;-55
2022/03/20 07:19:24;;;;;;;13.30;7.40;;;;;;;4.30;36.44;101157.22;5030973;28;20052;-56
2022/03/20 07:22:13;;;;;;;16.55;8.07;;;;;;;4.04;35.49;101153.88;5017269;28;20401;-60
2022/03/20 07:29:29;;;;;;;12.25;6.55;;;;;;;4.27;35.31;101163.31;5032010;28;20095;-56
2022/03/20 07:31:09;;;;;;;13.75;7.88;;;;;;;4.16;35.56;101165.06;5034324;28;20461;-53
2022/03/20 07:33:57;;;;;;;15.85;6.72;;;;;;;3.80;36.06;101163.41;5033866;28;20477;-51
2022/03/20 07:36:43;;;;;;;13.60;7.10;;;;;;;4.38;35.58;101157.19;5033018;28;20056;-57
2022/03/20 07:39:28;;;;;;;13.45;7.65;;;;;;;4.24;36.06;101150.34;5035308;28;20050;-55
2022/03/20 07:42:14;;;;;;;12.70;7.85;;;;;;;4.57;36.12;101152.75;5032339;28;20061;-56
2022/03/20 07:45:03;;;;;;;12.23;7.00;;;;;;;5.29;38.37;101149.69;5032891;28;20102;-54
2022/03/20 07:47:47;;;;;;;14.80;7.75;;;;;;;4.93;35.31;101153.41;5033453;28;20041;-53
2022/03/20 07:50:32;;;;;;;13.60;7.40;;;;;;;4.90;35.20;101149.97;5031548;28;20045;-53
2022/03/20 07:53:17;;;;;;;15.45;7.80;;;;;;;4.95;35.19;101145.59;5031747;28;20045;-51
2022/03/20 07:56:02;;;;;;;13.13;7.28;;;;;;;5.13;34.72;101152.41;5032213;28;20049;-50
2022/03/20 07:58:47;;;;;;;18.48;8.45;;;;;;;5.99;36.02;101154.19;5044329;28;20420;-49
2022/03/20 08:01:34;;;;;;;13.38;7.72;;;;;;;5.65;34.05;101154.56;5039059;28;20041;-59
2022/03/20 08:04:22;;;;;;;16.77;7.20;;;;;;;6.65;34.78;101162.09;5043699;28;20057;-57
2022/03/20 08:07:08;;;;;;;11.52;6.30;;;;;;;7.62;35.87;101152.75;5023352;28;20125;-51
2022/03/20 08:09:52;;;;;;;13.73;7.65;;;;;;;7.13;33.23;101163.13;5011749;28;20108;-54
2022/03/20 08:12:39;;;;;;;10.75;5.90;;;;;;;7.60;35.58;101162.38;5020365;28;20057;-55
2022/03/20 08:15:26;;;;;;;11.75;6.65;;;;;;;8.21;32.95;101158.59;5017781;28;20045;-57
2022/03/20 08:18:11;;;;;;;12.80;7.10;;;;;;;7.64;33.49;101156.19;5029967;28;20045;-55
2022/03/20 08:20:55;;;;;;;13.07;6.95;;;;;;;8.32;30.81;101152.31;5030406;28;20059;-57
2022/03/20 08:23:42;;;;;;;13.02;6.95;;;;;;;7.79;31.46;101162.03;5029385;28;20042;-57
2022/03/20 08:26:27;;;;;;;14.40;7.35;;;;;;;7.96;33.19;101169.53;5057588;28;20145;-57
2022/03/20 08:29:14;;;;;;;17.25;7.60;;;;;;;9.15;32.82;101153.97;5043933;28;20053;-57
2022/03/20 08:31:59;;;;;;;12.98;6.43;;;;;;;9.79;30.23;101160.16;5031302;28;20050;-55
2022/03/20 08:34:44;;;;;;;15.30;7.63;;;;;;;8.00;31.17;101163.38;5029536;28;20053;-56
2022/03/20 08:37:31;;;;;;;15.23;7.65;;;;;;;8.01;32.27;101172.06;5057814;28;20095;-57
2022/03/20 08:40:19;;;;;;;12.60;6.90;;;;;;;9.32;31.50;101157.91;5029935;28;20409;-57
2022/03/20 08:43:04;;;;;;;13.18;7.72;;;;;;;8.47;31.06;101165.03;5057999;28;20038;-53
2022/03/20 08:45:51;;;;;;;13.48;7.78;;;;;;;9.54;31.27;101160.84;5043401;28;20045;-58
2022/03/20 08:48:36;;;;;;;14.35;7.60;;;;;;;9.22;31.11;101158.13;5043877;28;20347;-57
2022/03/20 08:51:21;;;;;;;14.73;7.78;;;;;;;10.18;30.22;101163.50;5043886;28;20045;-57
2022/03/20 08:54:06;;;;;;;15.40;7.25;;;;;;;9.51;32.58;101162.66;5057923;28;20457;-58
2022/03/20 08:56:52;;;;;;;13.98;8.05;;;;;;;9.76;29.22;101159.41;5057723;28;20547;-57
2022/03/20 08:59:37;;;;;;;15.18;8.70;;;;;;;9.48;30.69;101172.31;5030858;28;20055;-56
2022/03/20 09:02:23;;;;;;;15.57;7.43;;;;;;;9.09;30.54;101175.03;5043472;28;20037;-56
2022/03/20 09:05:11;;;;;;;12.32;6.88;;;;;;;9.85;32.96;101170.50;5057645;28;20049;-56
2022/03/20 09:07:57;;;;;;;15.05;7.70;;;;;;;9.14;30.86;101164.47;5043835;28;20579;-57
2022/03/20 09:10:42;;;;;;;14.50;8.00;;;;;;;9.45;30.83;101166.31;5057595;28;20045;-57
2022/03/20 09:13:27;;;;;;;14.05;7.68;;;;;;;12.05;30.27;101168.00;5056515;28;20076;-57
2022/03/20 09:19:19;;;;;;;14.25;7.53;;;;;;;10.93;31.09;101167.41;5034092;28;20041;-57
2022/03/20 09:22:11;;;;;;;13.70;8.70;;;;;;;10.66;26.90;101175.22;5034314;28;20382;-57
2022/03/20 09:24:58;;;;;;;12.60;7.20;;;;;;;10.61;32.21;101184.97;5034093;28;20099;-56
2022/03/20 09:27:44;;;;;;;14.05;7.80;;;;;;;11.04;29.02;101176.69;5033967;28;20046;-57
2022/03/20 09:30:31;;;;;;;14.68;7.97;;;;;;;10.99;28.76;101175.97;5032732;28;20107;-57
2022/03/20 09:33:20;;;;;;;15.85;8.43;;;;;;;10.54;27.25;101172.97;5032935;28;20048;-57
2022/03/20 09:36:06;;;;;;;12.52;7.60;;;;;;;11.14;30.52;101170.25;5034155;28;20045;-56
2022/03/20 09:38:51;;;;;;;19.58;8.05;;;;;;;10.47;27.00;101185.41;5033386;28;20057;-56
2022/03/20 09:41:41;;;;;;;12.30;7.03;;;;;;;9.94;30.57;101189.47;5032727;28;20037;-57
2022/03/20 09:44:26;;;;;;;14.30;6.80;;;;;;;12.08;27.27;101188.09;5032615;28;20038;-57
2022/03/20 09:47:17;;;;;;;11.80;6.43;;;;;;;12.52;29.52;101186.47;5032755;28;20064;-57
2022/03/20 09:50:04;;;;;;;12.40;7.20;;;;;;;12.53;30.04;101182.94;5033633;28;20047;-57
2022/03/20 09:52:49;;;;;;;14.00;7.63;;;;;;;11.97;32.00;101198.09;5033245;28;20292;-57
2022/03/20 09:55:35;;;;;;;12.35;7.43;;;;;;;13.08;30.22;101183.44;5032288;28;20116;-56
2022/03/20 09:58:24;;;;;;;12.43;7.90;;;;;;;11.50;32.48;101189.19;5033835;28;20053;-56
2022/03/20 10:01:09;;;;;;;13.07;7.80;;;;;;;10.82;29.78;101188.69;5033444;28;20045;-57
2022/03/20 10:04:14;;;;;;;12.18;7.30;;;;;;;11.41;30.42;101196.47;5031499;28;20054;-56
2022/03/20 10:07:01;;;;;;;12.20;7.72;;;;;;;10.47;29.25;101195.88;5053761;28;20127;-57
2022/03/20 10:10:18;;;;;;;11.60;7.00;;;;;;;9.18;28.35;101207.94;5045984;28;20049;-56
2022/03/20 10:13:12;;;;;;;15.38;8.13;;;;;;;10.70;28.21;101191.72;5032946;28;20493;-57
2022/03/20 10:15:57;;;;;;;11.18;7.25;;;;;;;9.86;27.11;101214.09;5031758;28;20603;-56
2022/03/20 10:18:42;;;;;;;13.57;7.78;;;;;;;9.88;34.66;101197.47;5017947;28;20045;-56
2022/03/20 10:21:46;;;;;;;12.55;7.80;;;;;;;9.48;29.11;101206.31;5017732;28;20056;-57
2022/03/20 10:24:32;;;;;;;17.10;8.93;;;;;;;9.51;43.63;101194.06;5039108;28;20037;-60
2022/03/20 10:27:17;;;;;;;15.27;8.68;;;;;;;11.19;35.08;101201.56;5054887;28;20045;-58
2022/03/20 10:30:08;;;;;;;14.10;8.20;;;;;;;10.22;29.64;101191.31;5043838;28;20103;-59
2022/03/20 10:32:53;;;;;;;13.68;7.82;;;;;;;11.38;40.41;101199.19;5048828;28;20064;-58
2022/03/20 10:35:39;;;;;;;12.88;7.35;;;;;;;10.22;33.12;101204.41;5036523;28;20492;-58
2022/03/20 10:38:38;;;;;;;13.38;7.45;;;;;;;11.44;35.95;101191.09;5041337;28;20037;-58
2022/03/20 10:41:32;;;;;;;13.35;7.45;;;;;;;10.83;31.38;101187.81;5044679;28;20045;-59
2022/03/20 10:44:20;;;;;;;11.00;6.28;;;;;;;11.43;38.01;101188.53;5044607;28;20048;-59
2022/03/20 10:47:13;;;;;;;11.45;6.90;;;;;;;10.74;37.96;101193.31;5039226;28;20041;-59
2022/03/20 10:50:21;;;;;;;15.15;6.95;;;;;;;12.41;31.51;101193.00;5065460;28;20396;-62
2022/03/20 10:53:06;;;;;;;15.18;8.23;;;;;;;12.90;28.16;101185.91;5011172;28;20050;-58
2022/03/20 10:55:57;;;;;;;14.55;7.50;;;;;;;11.14;30.35;101172.00;5012085;28;20129;-60
2022/03/20 10:58:41;;;;;;;12.43;7.28;;;;;;;11.80;27.57;101179.38;5012453;28;20050;-61
2022/03/20 11:01:36;;;;;;;14.35;7.60;;;;;;;11.55;27.61;101182.03;5058842;28;20056;-59
2022/03/20 11:04:23;;;;;;;12.02;6.68;;;;;;;13.04;38.68;101161.69;5064677;28;20071;-54
2022/03/20 11:07:11;;;;;;;12.95;6.90;;;;;;;13.26;31.33;101177.44;5041275;28;20037;-57
2022/03/20 11:09:56;;;;;;;18.23;9.73;;;;;;;13.03;25.25;101166.09;5067223;28;20041;-58
2022/03/20 11:12:43;;;;;;;14.10;7.47;;;;;;;13.98;27.12;101170.94;5066028;28;20077;-59
2022/03/20 11:15:29;;;;;;;12.98;6.80;;;;;;;12.11;28.31;101156.44;5055031;28;20049;-59
2022/03/20 11:18:15;;;;;;;13.35;7.53;;;;;;;12.30;28.27;101151.38;5046665;28;20053;-59
2022/03/20 11:21:04;;;;;;;13.02;7.38;;;;;;;14.48;32.67;101139.66;5032098;28;20496;-58
2022/03/20 11:23:58;;;;;;;13.43;7.13;;;;;;;13.11;32.36;101144.72;5031666;28;20045;-59
2022/03/20 11:26:51;;;;;;;14.18;6.75;;;;;;;13.42;31.84;101132.03;5031931;28;20057;-58
2022/03/20 11:29:50;;;;;;;;;;;;;;;14.25;26.52;101126.66;5055994;28;20488;-58
2022/03/20 11:32:36;;;;;;;12.85;7.30;;;;;;;13.78;25.34;101134.03;5050042;28;20027;-58
2022/03/20 11:35:29;;;;;;;12.20;7.20;;;;;;;12.84;25.46;101123.88;5046549;28;20060;-57
2022/03/20 11:38:17;;;;;;;13.50;7.63;;;;;;;12.78;25.30;101116.22;5036318;28;20048;-58
2022/03/20 11:41:09;;;;;;;13.70;7.10;;;;;;;13.66;25.46;101108.22;5030063;28;20118;-58
2022/03/20 11:44:15;;;;;;;10.25;5.93;;;;;;;14.69;24.24;101114.03;5011888;28;20057;-57
2022/03/20 11:47:19;;;;;;;11.60;6.50;;;;;;;15.61;23.13;101117.44;5012052;28;20144;-59
2022/03/20 11:50:15;;;;;;;10.05;7.03;;;;;;;14.64;26.25;101098.44;5024708;28;20046;-58
2022/03/20 11:53:02;;;;;;;14.07;7.07;;;;;;;14.71;23.06;101096.38;5011529;28;20465;-59
2022/03/20 11:55:53;;;;;;;13.07;6.63;;;;;;;13.85;24.89;101100.34;5011471;28;20128;-59
2022/03/20 11:58:41;;;;;;;11.20;6.07;;;;;;;13.35;28.08;101097.22;5009900;28;20096;-57
2022/03/20 12:01:25;;;;;;;10.45;6.30;;;;;;;14.35;23.20;101120.94;5010010;28;20382;-58
2022/03/20 12:04:14;;;;;;;9.90;5.75;;;;;;;13.59;23.66;101105.00;5010425;28;20057;-58
2022/03/20 12:06:59;;;;;;;9.38;5.70;;;;;;;14.38;22.29;101092.63;5011098;28;20045;-60
2022/03/20 12:10:10;;;;;;;8.57;5.15;;;;;;;14.44;22.64;101096.78;5011649;28;20049;-62
2022/03/20 12:13:05;;;;;;;8.57;5.20;;;;;;;15.63;22.37;101096.22;5023406;28;20082;-59
2022/03/20 12:15:51;;;;;;;9.43;4.82;;;;;;;14.60;21.50;101091.63;5012421;28;20049;-59
2022/03/20 12:19:08;;;;;;;12.68;5.43;;;;;;;15.27;20.65;101072.50;5016048;28;20053;-60
2022/03/20 12:22:06;;;;;;;8.32;4.78;;;;;;;15.79;19.57;101071.59;5031064;28;20099;-63
2022/03/20 12:24:54;;;;;;;8.82;4.88;;;;;;;15.98;20.97;101056.47;5030892;28;20041;-59
2022/03/20 12:27:40;;;;;;;9.23;5.43;;;;;;;15.95;22.68;101064.56;5032039;28;20139;-59
2022/03/20 12:30:30;;;;;;;9.50;5.13;;;;;;;16.13;21.31;101048.63;5033987;28;20470;-59
2022/03/20 12:33:27;;;;;;;10.32;5.15;;;;;;;15.08;23.78;101066.47;5036473;28;20037;-59
2022/03/20 12:36:28;;;;;;;11.02;5.32;;;;;;;15.46;21.35;101060.97;5047555;28;20047;-60
2022/03/20 12:39:13;;;;;;;10.25;5.40;;;;;;;16.06;20.87;101042.84;5042442;28;20045;-59
2022/03/20 12:41:58;;;;;;;10.55;5.32;;;;;;;16.05;19.83;101048.22;5030147;28;20041;-62
2022/03/20 12:44:50;;;;;;;9.23;4.90;;;;;;;16.55;24.14;101050.75;5023690;28;20041;-58
2022/03/20 12:47:35;;;;;;;10.15;4.53;;;;;;;16.36;21.18;101051.78;5031346;28;20068;-56
2022/03/20 12:50:27;;;;;;;7.75;4.82;;;;;;;16.53;24.31;101049.97;5027640;28;20049;-57
2022/03/20 12:53:21;;;;;;;8.32;4.75;;;;;;;16.97;20.88;101048.31;5042894;28;20049;-55
2022/03/20 12:59:24;;;;;;;9.32;4.82;;;;;;;16.28;23.91;101049.56;5018311;28;20038;-59
2022/03/20 13:02:10;;;;;;;7.75;4.65;;;;;;;14.69;26.26;101055.16;5032334;28;20593;-59
2022/03/20 13:05:08;;;;;;;8.23;5.00;;;;;;;13.74;21.19;101063.09;5033875;28;20072;-57
2022/03/20 13:07:54;;;;;;;9.98;5.43;;;;;;;14.36;21.66;101048.84;5005803;28;20057;-59
2022/03/20 13:10:40;;;;;;;9.30;5.93;;;;;;;14.86;21.32;101051.72;5046176;28;20043;-60
2022/03/20 13:13:35;;;;;;;11.13;6.13;;;;;;;13.91;21.59;101044.75;5027229;28;20056;-59
2022/03/20 13:16:24;;;;;;;10.93;5.18;;;;;;;14.77;21.87;101047.72;5045420;28;20187;-58
2022/03/20 13:19:09;;;;;;;10.23;6.28;;;;;;;13.45;21.47;101055.53;5035225;28;20044;-60
2022/03/20 13:21:56;;;;;;;12.10;5.43;;;;;;;13.62;22.16;101051.34;5033294;28;20037;-59
2022/03/20 13:24:43;;;;;;;9.18;5.63;;;;;;;13.54;22.25;101052.56;5034152;28;20054;-58
2022/03/20 13:27:38;;;;;;;7.72;5.18;;;;;;;14.03;21.54;101048.59;5033323;28;20163;-58
2022/03/20 13:30:36;;;;;;;10.05;5.45;;;;;;;13.74;21.22;101042.03;5034017;28;20049;-57
2022/03/20 13:33:40;;;;;;;10.25;5.60;;;;;;;13.58;22.00;101041.88;5033057;28;20055;-57